createdAt,value
2023-03-29T00:00:40.566Z,34.44
2023-03-29T00:01:40.566Z,34.38
2023-03-29T00:02:40.678Z,34.53
2023-03-29T00:03:40.646Z,34.44
2023-03-29T00:04:40.590Z,34.48
2023-03-29T00:05:40.546Z,34.47
2023-03-29T00:06:40.573Z,34.48
2023-03-29T00:07:40.532Z,34.49
2023-03-29T00:08:40.545Z,34.52
2023-03-29T00:09:40.557Z,34.51
2023-03-29T00:10:40.543Z,34.47
2023-03-29T00:11:40.585Z,34.43
2023-03-29T00:12:40.514Z,34.57
2023-03-29T00:13:40.506Z,34.43
2023-03-29T00:14:39.501Z,34.43
2023-03-29T00:15:40.502Z,34.49
2023-03-29T00:16:40.575Z,34.54
2023-03-29T00:17:40.555Z,34.57
2023-03-29T00:18:40.504Z,34.53
2023-03-29T00:19:40.511Z,34.54
2023-03-29T00:20:40.489Z,34.47
2023-03-29T00:21:39.492Z,34.50
2023-03-29T00:22:40.529Z,34.43
2023-03-29T00:23:40.491Z,34.47
2023-03-29T00:24:40.479Z,34.53
2023-03-29T00:25:40.475Z,34.43
2023-03-29T00:26:40.488Z,34.54
2023-03-29T00:27:40.484Z,34.50
2023-03-29T00:28:40.513Z,34.57
2023-03-29T00:29:40.478Z,34.58
2023-03-29T00:30:40.479Z,34.51
2023-03-29T00:31:40.484Z,34.56
2023-03-29T00:32:40.482Z,34.52
2023-03-29T00:33:40.467Z,34.59
2023-03-29T00:34:40.491Z,34.52
2023-03-29T00:35:40.483Z,34.44
2023-03-29T00:36:40.478Z,34.54
2023-03-29T00:37:40.451Z,34.55
2023-03-29T00:38:40.444Z,34.58
2023-03-29T00:39:40.433Z,34.44
2023-03-29T00:40:40.451Z,34.50
2023-03-29T00:41:39.428Z,34.59
2023-03-29T00:42:40.425Z,34.44
2023-03-29T00:43:40.432Z,34.54
2023-03-29T00:44:40.413Z,34.57
2023-03-29T00:45:40.395Z,34.49
2023-03-29T00:46:40.476Z,34.50
2023-03-29T00:47:39.411Z,34.58
2023-03-29T00:48:40.399Z,34.67
2023-03-29T00:49:40.413Z,34.74
2023-03-29T00:50:40.412Z,34.52
2023-03-29T00:51:40.399Z,34.46
2023-03-29T00:52:40.427Z,34.54
2023-03-29T00:53:39.404Z,34.56
2023-03-29T00:54:40.413Z,34.53
2023-03-29T00:55:40.396Z,34.57
2023-03-29T00:56:40.550Z,34.59
2023-03-29T00:57:40.379Z,34.45
2023-03-29T00:58:40.455Z,34.66
2023-03-29T00:59:40.385Z,34.49
2023-03-29T01:00:40.424Z,34.48
2023-03-29T01:01:40.463Z,34.60
2023-03-29T01:02:40.558Z,34.51
2023-03-29T01:03:39.468Z,34.42
2023-03-29T01:04:39.408Z,34.55
2023-03-29T01:05:40.477Z,34.66
2023-03-29T01:06:40.443Z,34.62
2023-03-29T01:07:39.411Z,34.57
2023-03-29T01:08:39.414Z,34.52
2023-03-29T01:09:40.428Z,34.48
2023-03-29T01:10:40.426Z,34.45
2023-03-29T01:11:40.446Z,34.53
2023-03-29T01:12:40.526Z,34.51
2023-03-29T01:13:39.450Z,34.55
2023-03-29T01:14:40.440Z,34.56
2023-03-29T01:15:40.470Z,34.60
2023-03-29T01:16:40.493Z,34.57
2023-03-29T01:17:40.559Z,34.60
2023-03-29T01:18:39.495Z,34.51
2023-03-29T01:19:40.489Z,34.50
2023-03-29T01:20:40.491Z,34.56
2023-03-29T01:21:40.493Z,34.57
2023-03-29T01:22:40.490Z,34.47
2023-03-29T01:23:40.523Z,34.51
2023-03-29T01:24:40.506Z,34.52
2023-03-29T01:25:40.495Z,34.57
2023-03-29T01:26:40.516Z,34.52
2023-03-29T01:27:40.503Z,34.48
2023-03-29T01:28:40.511Z,34.57
2023-03-29T01:29:40.499Z,34.50
2023-03-29T01:30:40.504Z,34.59
2023-03-29T01:31:40.568Z,34.54
2023-03-29T01:32:39.513Z,34.52
2023-03-29T01:33:40.526Z,34.48
2023-03-29T01:34:40.508Z,34.48
2023-03-29T01:35:40.547Z,34.57
2023-03-29T01:36:40.529Z,34.46
2023-03-29T01:37:39.542Z,34.48
2023-03-29T01:38:40.564Z,34.55
2023-03-29T01:39:40.534Z,34.47
2023-03-29T01:40:40.532Z,34.52
2023-03-29T01:41:40.592Z,34.61
2023-03-29T01:42:39.575Z,34.61
2023-03-29T01:43:40.582Z,34.62
2023-03-29T01:44:40.566Z,34.53
2023-03-29T01:45:40.646Z,34.48
2023-03-29T01:46:40.576Z,34.58
2023-03-29T01:47:40.605Z,34.63
2023-03-29T01:48:39.578Z,34.52
2023-03-29T01:49:40.588Z,34.52
2023-03-29T01:50:40.619Z,34.51
2023-03-29T01:51:39.589Z,34.47
2023-03-29T01:52:40.587Z,34.43
2023-03-29T01:53:40.589Z,34.53
2023-03-29T01:54:40.616Z,34.52
2023-03-29T01:55:39.565Z,34.53
2023-03-29T01:56:40.603Z,34.44
2023-03-29T01:57:40.639Z,34.46
2023-03-29T01:58:40.673Z,34.41
2023-03-29T01:59:40.704Z,34.39
2023-03-29T02:00:40.753Z,34.22
2023-03-29T02:01:40.888Z,34.23
2023-03-29T02:02:40.934Z,34.25
2023-03-29T02:03:39.953Z,34.20
2023-03-29T02:04:40.952Z,34.14
2023-03-29T02:05:41.007Z,34.09
2023-03-29T02:06:41.041Z,34.09
2023-03-29T02:07:41.056Z,33.99
2023-03-29T02:08:41.095Z,34.01
2023-03-29T02:09:41.164Z,33.93
2023-03-29T02:10:41.148Z,33.87
2023-03-29T02:11:41.170Z,33.86
2023-03-29T02:12:41.198Z,33.83
2023-03-29T02:13:41.205Z,33.76
2023-03-29T02:14:41.248Z,33.75
2023-03-29T02:15:41.295Z,33.75
2023-03-29T02:16:41.227Z,33.70
2023-03-29T02:17:41.237Z,33.66
2023-03-29T02:18:41.247Z,33.69
2023-03-29T02:19:40.248Z,33.69
2023-03-29T02:20:40.246Z,33.58
2023-03-29T02:21:41.267Z,33.55
2023-03-29T02:22:41.255Z,33.56
2023-03-29T02:23:41.245Z,33.52
2023-03-29T02:24:40.248Z,33.50
2023-03-29T02:25:41.247Z,33.46
2023-03-29T02:26:41.239Z,33.43
2023-03-29T02:27:40.267Z,33.40
2023-03-29T02:28:41.229Z,33.37
2023-03-29T02:29:41.278Z,33.36
2023-03-29T02:30:40.293Z,33.29
2023-03-29T02:31:41.417Z,33.22
2023-03-29T02:32:41.355Z,33.28
2023-03-29T02:33:41.419Z,33.17
2023-03-29T02:34:41.433Z,33.21
2023-03-29T02:35:40.507Z,33.20
2023-03-29T02:36:41.548Z,33.15
2023-03-29T02:37:41.608Z,33.18
2023-03-29T02:38:41.657Z,33.13
2023-03-29T02:39:41.768Z,33.18
2023-03-29T02:40:41.781Z,33.06
2023-03-29T02:41:41.863Z,33.06
2023-03-29T02:42:41.951Z,33.06
2023-03-29T02:43:42.082Z,33.03
2023-03-29T02:44:42.073Z,32.97
2023-03-29T02:45:42.111Z,32.95
2023-03-29T02:46:41.222Z,32.92
2023-03-29T02:47:42.226Z,32.91
2023-03-29T02:48:42.379Z,32.92
2023-03-29T02:49:42.351Z,32.89
2023-03-29T02:50:42.421Z,32.85
2023-03-29T02:51:41.468Z,32.95
2023-03-29T02:52:42.529Z,32.89
2023-03-29T02:53:42.567Z,32.84
2023-03-29T02:54:42.698Z,32.80
2023-03-29T02:55:42.686Z,32.80
2023-03-29T02:56:42.769Z,32.77
2023-03-29T02:57:42.788Z,32.67
2023-03-29T02:58:42.833Z,32.73
2023-03-29T02:59:41.891Z,32.64
2023-03-29T03:00:43.072Z,32.64
2023-03-29T03:01:42.059Z,32.73
2023-03-29T03:02:43.219Z,32.64
2023-03-29T03:03:42.122Z,32.71
2023-03-29T03:04:43.110Z,32.61
2023-03-29T03:05:42.336Z,32.60
2023-03-29T03:06:43.197Z,32.70
2023-03-29T03:07:43.263Z,32.60
2023-03-29T03:08:43.297Z,32.58
2023-03-29T03:09:43.339Z,32.51
2023-03-29T03:10:43.395Z,32.54
2023-03-29T03:11:43.445Z,32.57
2023-03-29T03:12:43.467Z,32.56
2023-03-29T03:13:43.520Z,32.58
2023-03-29T03:14:42.564Z,32.58
2023-03-29T03:15:43.626Z,32.54
2023-03-29T03:16:42.757Z,32.58
2023-03-29T03:17:43.718Z,32.57
2023-03-29T03:18:43.798Z,32.54
2023-03-29T03:19:43.782Z,32.55
2023-03-29T03:20:43.818Z,32.50
2023-03-29T03:21:42.870Z,32.48
2023-03-29T03:22:42.914Z,32.49
2023-03-29T03:23:43.944Z,32.50
2023-03-29T03:24:43.985Z,32.45
2023-03-29T03:25:44.081Z,32.49
2023-03-29T03:26:44.082Z,32.42
2023-03-29T03:27:44.148Z,32.46
2023-03-29T03:28:44.192Z,32.46
2023-03-29T03:29:44.234Z,32.42
2023-03-29T03:30:44.290Z,32.45
2023-03-29T03:31:44.411Z,32.41
2023-03-29T03:32:44.402Z,32.43
2023-03-29T03:33:44.436Z,32.43
2023-03-29T03:34:44.496Z,32.48
2023-03-29T03:35:44.586Z,32.45
2023-03-29T03:36:44.588Z,32.42
2023-03-29T03:37:43.646Z,32.49
2023-03-29T03:38:43.678Z,32.40
2023-03-29T03:39:44.734Z,32.50
2023-03-29T03:40:44.797Z,32.44
2023-03-29T03:41:44.830Z,32.52
2023-03-29T03:42:44.922Z,32.44
2023-03-29T03:43:44.949Z,32.44
2023-03-29T03:44:44.975Z,32.45
2023-03-29T03:45:45.047Z,32.46
2023-03-29T03:46:45.070Z,32.47
2023-03-29T03:47:45.135Z,32.42
2023-03-29T03:48:44.222Z,32.43
2023-03-29T03:49:44.229Z,32.42
2023-03-29T03:50:44.298Z,32.43
2023-03-29T03:51:45.350Z,32.41
2023-03-29T03:52:45.382Z,32.39
2023-03-29T03:53:45.426Z,32.49
2023-03-29T03:54:45.493Z,32.46
2023-03-29T03:55:45.565Z,32.47
2023-03-29T03:56:45.601Z,32.46
2023-03-29T03:57:44.639Z,32.39
2023-03-29T03:58:45.708Z,32.42
2023-03-29T03:59:44.750Z,32.47
2023-03-29T04:00:45.819Z,32.46
2023-03-29T04:01:45.844Z,32.40
2023-03-29T04:02:45.030Z,32.43
2023-03-29T04:03:46.082Z,32.44
2023-03-29T04:04:46.021Z,32.49
2023-03-29T04:05:46.080Z,32.40
2023-03-29T04:06:46.198Z,32.51
2023-03-29T04:07:46.191Z,32.47
2023-03-29T04:08:46.234Z,32.49
2023-03-29T04:09:46.306Z,32.50
2023-03-29T04:10:46.351Z,32.49
2023-03-29T04:11:46.417Z,32.54
2023-03-29T04:12:46.499Z,32.51
2023-03-29T04:13:46.544Z,32.48
2023-03-29T04:14:46.583Z,32.57
2023-03-29T04:15:45.690Z,32.48
2023-03-29T04:16:46.696Z,32.57
2023-03-29T04:17:46.783Z,32.48
2023-03-29T04:18:46.847Z,32.58
2023-03-29T04:19:46.866Z,32.49
2023-03-29T04:20:46.938Z,32.60
2023-03-29T04:21:46.969Z,32.48
2023-03-29T04:22:47.057Z,32.52
2023-03-29T04:23:47.079Z,32.53
2023-03-29T04:24:47.162Z,32.54
2023-03-29T04:25:47.218Z,32.55
2023-03-29T04:26:46.253Z,32.57
2023-03-29T04:27:46.341Z,32.55
2023-03-29T04:28:46.386Z,32.56
2023-03-29T04:29:47.478Z,32.52
2023-03-29T04:30:47.546Z,32.49
2023-03-29T04:31:46.587Z,32.55
2023-03-29T04:32:46.645Z,32.55
2023-03-29T04:33:47.694Z,32.58
2023-03-29T04:34:47.720Z,32.62
2023-03-29T04:35:47.888Z,32.54
2023-03-29T04:36:47.830Z,32.57
2023-03-29T04:37:46.878Z,32.55
2023-03-29T04:38:48.172Z,32.51
2023-03-29T04:39:46.973Z,32.54
2023-03-29T04:40:48.038Z,32.55
2023-03-29T04:41:48.086Z,32.57
2023-03-29T04:42:48.118Z,32.56
2023-03-29T04:43:48.213Z,32.61
2023-03-29T04:44:48.261Z,32.55
2023-03-29T04:45:47.290Z,32.58
2023-03-29T04:46:48.429Z,32.58
2023-03-29T04:47:48.548Z,32.53
2023-03-29T04:48:47.466Z,32.57
2023-03-29T04:49:47.626Z,32.54
2023-03-29T04:50:48.578Z,32.54
2023-03-29T04:51:48.628Z,32.58
2023-03-29T04:52:47.702Z,32.57
2023-03-29T04:53:48.732Z,32.51
2023-03-29T04:54:48.801Z,32.57
2023-03-29T04:55:48.816Z,32.56
2023-03-29T04:56:48.920Z,32.50
2023-03-29T04:57:48.914Z,32.52
2023-03-29T04:58:47.973Z,32.46
2023-03-29T04:59:49.001Z,32.42
2023-03-29T05:00:49.067Z,32.46
2023-03-29T05:01:49.148Z,32.54
2023-03-29T05:02:49.168Z,32.56
2023-03-29T05:03:49.237Z,32.50
2023-03-29T05:04:49.254Z,32.52
2023-03-29T05:05:49.279Z,32.48
2023-03-29T05:06:49.430Z,32.51
2023-03-29T05:12:48.518Z,32.44
2023-03-29T05:13:48.741Z,32.51
2023-03-29T05:14:48.698Z,32.54
2023-03-29T05:15:49.721Z,32.57
2023-03-29T05:16:49.712Z,32.61
2023-03-29T05:17:49.813Z,32.67
2023-03-29T05:18:49.771Z,32.60
2023-03-29T05:19:50.055Z,32.63
2023-03-29T05:20:49.994Z,32.68
2023-03-29T05:21:50.137Z,32.61
2023-03-29T05:22:50.106Z,32.67
2023-03-29T05:23:49.987Z,32.60
2023-03-29T05:24:50.087Z,32.64
2023-03-29T05:25:50.114Z,32.64
2023-03-29T05:28:49.964Z,32.84
2023-03-29T05:30:49.218Z,32.88
2023-03-29T05:31:50.284Z,32.92
2023-03-29T05:32:50.357Z,32.97
2023-03-29T05:33:50.306Z,33.00
2023-03-29T05:34:50.387Z,33.16
2023-03-29T05:35:50.390Z,33.14
2023-03-29T05:36:50.383Z,33.27
2023-03-29T05:37:50.457Z,33.48
2023-03-29T05:38:50.429Z,33.77
2023-03-29T05:41:49.514Z,33.58
2023-03-29T05:42:50.676Z,33.58
2023-03-29T05:44:49.542Z,34.41
2023-03-29T05:45:50.565Z,34.75
2023-03-29T05:46:50.915Z,34.90
2023-03-29T05:49:50.723Z,35.68
2023-03-29T05:50:51.004Z,35.65
2023-03-29T05:51:56.945Z,35.71
2023-03-29T05:52:50.572Z,36.24
2023-03-29T05:54:49.569Z,36.64
2023-03-29T05:55:50.533Z,36.69
2023-03-29T05:59:49.507Z,36.85
2023-03-29T06:00:50.606Z,37.06
2023-03-29T06:01:50.894Z,37.00
2023-03-29T06:05:49.765Z,36.80
2023-03-29T06:06:50.464Z,36.69
2023-03-29T06:07:50.460Z,36.71
2023-03-29T06:08:50.450Z,36.71
2023-03-29T06:13:49.422Z,36.74
2023-03-29T06:14:50.438Z,36.73
2023-03-29T06:15:50.403Z,36.81
2023-03-29T06:17:49.482Z,36.66
2023-03-29T06:18:50.395Z,36.72
2023-03-29T06:19:50.386Z,36.61
2023-03-29T06:21:49.377Z,36.53
2023-03-29T06:22:50.356Z,36.57
2023-03-29T06:25:49.337Z,36.46
2023-03-29T06:26:50.355Z,36.48
2023-03-29T06:28:52.094Z,36.46
2023-03-29T06:29:50.308Z,36.46
2023-03-29T06:30:50.356Z,36.36
2023-03-29T06:32:49.343Z,36.23
2023-03-29T06:33:50.320Z,36.25
2023-03-29T06:35:49.338Z,36.21
2023-03-29T06:36:50.264Z,36.17
2023-03-29T06:37:50.246Z,36.18
2023-03-29T06:38:50.262Z,36.12
2023-03-29T06:39:52.792Z,36.07
2023-03-29T06:43:49.199Z,35.96
2023-03-29T06:44:50.192Z,35.93
2023-03-29T06:45:50.230Z,35.90
2023-03-29T06:49:49.181Z,35.84
2023-03-29T06:50:50.140Z,35.85
2023-03-29T06:51:50.452Z,35.75
2023-03-29T06:56:49.432Z,35.99
2023-03-29T06:57:50.267Z,35.86
2023-03-29T06:58:50.093Z,35.92
2023-03-29T06:59:50.119Z,35.93
2023-03-29T07:00:49.094Z,35.97
2023-03-29T07:01:50.130Z,35.85
2023-03-29T07:02:50.193Z,35.92
2023-03-29T07:03:50.129Z,35.93
2023-03-29T07:06:49.062Z,35.84
2023-03-29T07:07:50.066Z,35.82
2023-03-29T07:09:49.004Z,35.84
2023-03-29T07:10:50.023Z,35.90
2023-03-29T07:11:50.037Z,35.84
2023-03-29T07:16:49.043Z,35.91
2023-03-29T07:17:50.048Z,35.87
2023-03-29T07:18:50.036Z,35.99
2023-03-29T07:20:48.929Z,35.88
2023-03-29T07:21:49.941Z,35.84
2023-03-29T07:24:48.897Z,35.92
2023-03-29T07:25:49.909Z,35.98
2023-03-29T07:27:03.334Z,36.05
2023-03-29T07:31:48.834Z,36.09
2023-03-29T07:32:49.949Z,36.14
2023-03-29T07:33:49.907Z,36.03
2023-03-29T07:34:49.844Z,36.24
2023-03-29T07:38:48.789Z,36.03
2023-03-29T07:39:49.782Z,36.03
2023-03-29T07:40:49.770Z,36.05
2023-03-29T07:46:48.799Z,36.58
2023-03-29T07:47:50.012Z,36.76
2023-03-29T07:49:48.699Z,37.19
2023-03-29T07:50:49.720Z,37.42
2023-03-29T07:55:48.657Z,38.23
2023-03-29T07:56:49.731Z,38.48
2023-03-29T07:58:48.638Z,38.27
2023-03-29T07:59:48.644Z,38.08
2023-03-29T08:04:48.611Z,36.94
2023-03-29T08:09:48.568Z,36.65
2023-03-29T08:10:49.572Z,36.87
2023-03-29T08:11:49.542Z,36.91
2023-03-29T08:12:49.541Z,36.98
2023-03-29T08:15:48.555Z,37.15
2023-03-29T08:16:48.544Z,37.22
2023-03-29T08:17:48.577Z,37.36
2023-03-29T08:18:49.525Z,37.44
2023-03-29T08:19:51.012Z,37.59
2023-03-29T08:23:48.504Z,38.37
2023-03-29T08:24:49.513Z,38.55
2023-03-29T08:25:48.520Z,38.39
2023-03-29T08:26:49.507Z,38.35
2023-03-29T08:27:49.522Z,38.51
2023-03-29T08:28:49.487Z,38.40
2023-03-29T08:29:49.500Z,38.42
2023-03-29T08:30:49.542Z,38.33
2023-03-29T08:31:49.453Z,38.22
2023-03-29T08:35:48.514Z,38.55
2023-03-29T08:36:49.423Z,38.84
2023-03-29T08:37:49.416Z,39.09
2023-03-29T08:38:48.438Z,38.68
2023-03-29T08:39:49.409Z,38.96
2023-03-29T08:43:48.383Z,39.74
2023-03-29T08:44:49.369Z,39.70
2023-03-29T08:45:50.915Z,39.46
2023-03-29T08:46:49.397Z,39.69
2023-03-29T08:47:49.538Z,39.75
2023-03-29T08:49:48.346Z,39.59
2023-03-29T08:50:49.322Z,39.44
2023-03-29T08:51:49.352Z,39.81
2023-03-29T08:55:48.301Z,40.75
2023-03-29T08:56:49.316Z,40.47
2023-03-29T08:57:49.533Z,40.31
2023-03-29T08:59:48.276Z,40.16
2023-03-29T09:00:49.258Z,40.40
2023-03-29T09:01:49.336Z,38.68
2023-03-29T09:05:48.245Z,30.37
2023-03-29T09:06:48.225Z,29.89
2023-03-29T09:10:48.220Z,30.36
2023-03-29T09:11:49.194Z,30.34
2023-03-29T09:12:49.252Z,30.07
2023-03-29T09:13:49.171Z,30.39
2023-03-29T09:17:49.589Z,30.36
2023-03-29T09:18:48.149Z,30.75
2023-03-29T09:19:49.261Z,30.67
2023-03-29T09:20:49.132Z,30.62
2023-03-29T09:22:48.102Z,30.58
2023-03-29T09:23:49.085Z,30.59
2023-03-29T09:24:49.082Z,30.63
2023-03-29T09:28:48.125Z,30.54
2023-03-29T09:29:48.051Z,30.62
2023-03-29T09:32:48.129Z,33.63
2023-03-29T09:33:49.045Z,33.57
2023-03-29T09:34:49.075Z,33.15
2023-03-29T09:35:49.129Z,32.75
2023-03-29T09:36:49.168Z,32.25
2023-03-29T09:38:48.249Z,32.17
2023-03-29T09:39:49.279Z,32.42
2023-03-29T09:40:49.301Z,32.39
2023-03-29T09:41:49.330Z,32.66
2023-03-29T09:42:49.364Z,32.74
2023-03-29T09:43:49.356Z,32.27
2023-03-29T09:47:48.505Z,32.94
2023-03-29T09:48:49.371Z,35.59
2023-03-29T09:49:49.397Z,33.86
2023-03-29T09:50:49.464Z,31.04
2023-03-29T09:51:48.467Z,32.96
2023-03-29T09:52:49.982Z,34.05
2023-03-29T09:54:48.636Z,34.27
2023-03-29T09:55:50.227Z,34.41
2023-03-29T09:56:49.739Z,34.65
2023-03-29T09:57:48.679Z,34.65
2023-03-29T09:58:49.718Z,34.79
2023-03-29T09:59:49.734Z,34.75
2023-03-29T10:00:49.838Z,35.05
2023-03-29T10:01:49.989Z,35.19
2023-03-29T10:02:49.911Z,35.30
2023-03-29T10:03:49.971Z,35.42
2023-03-29T10:04:49.960Z,35.60
2023-03-29T10:05:50.005Z,35.66
2023-03-29T10:06:50.002Z,35.88
2023-03-29T10:07:50.028Z,35.90
2023-03-29T10:08:50.070Z,35.99
2023-03-29T10:09:50.076Z,36.22
2023-03-29T10:13:49.105Z,36.43
2023-03-29T10:14:53.050Z,36.76
2023-03-29T10:17:49.119Z,37.18
2023-03-29T10:18:50.157Z,37.10
2023-03-29T10:20:49.089Z,37.96
2023-03-29T10:21:50.080Z,38.02
2023-03-29T10:22:50.080Z,38.14
2023-03-29T10:23:50.057Z,38.22
2023-03-29T10:26:49.017Z,38.49
2023-03-29T10:27:49.036Z,38.50
2023-03-29T10:28:50.030Z,38.69
2023-03-29T10:29:50.038Z,38.84
2023-03-29T10:30:50.043Z,39.04
2023-03-29T10:33:49.030Z,39.50
2023-03-29T10:34:50.002Z,39.40
2023-03-29T10:35:50.052Z,39.75
2023-03-29T10:37:48.969Z,39.50
2023-03-29T10:38:50.277Z,39.75
2023-03-29T10:39:49.317Z,39.73
2023-03-29T10:42:49.538Z,40.23
2023-03-29T10:43:51.188Z,40.26
2023-03-29T10:45:51.742Z,39.75
2023-03-29T10:47:49.118Z,39.63
2023-03-29T10:48:50.402Z,39.49
2023-03-29T10:51:49.235Z,39.54
2023-03-29T10:52:50.381Z,39.64
2023-03-29T10:53:50.737Z,39.67
2023-03-29T10:54:50.418Z,39.63
2023-03-29T10:57:49.500Z,39.69
2023-03-29T10:58:50.255Z,39.75
2023-03-29T10:59:50.189Z,39.67
2023-03-29T11:03:49.600Z,39.81
2023-03-29T11:04:50.375Z,39.78
2023-03-29T11:05:50.984Z,39.72
2023-03-29T11:06:50.899Z,39.89
2023-03-29T11:07:50.417Z,39.96
2023-03-29T11:08:51.038Z,39.92
2023-03-29T11:09:50.534Z,39.99
2023-03-29T11:10:51.275Z,39.97
2023-03-29T11:14:50.257Z,39.93
2023-03-29T11:15:51.407Z,39.91
2023-03-29T11:16:50.936Z,39.95
2023-03-29T11:17:51.542Z,40.00
2023-03-29T11:18:51.354Z,39.93
2023-03-29T11:21:49.624Z,39.83
2023-03-29T11:22:51.633Z,39.93
2023-03-29T11:23:51.942Z,39.90
2023-03-29T11:25:50.195Z,39.89
2023-03-29T11:27:50.100Z,39.91
2023-03-29T11:28:51.998Z,39.87
2023-03-29T11:29:51.312Z,40.05
2023-03-29T11:30:50.873Z,39.95
2023-03-29T11:31:50.120Z,40.02
2023-03-29T11:32:50.728Z,39.96
2023-03-29T11:33:49.965Z,39.84
2023-03-29T11:34:51.375Z,40.00
2023-03-29T11:35:51.322Z,39.93
2023-03-29T11:38:51.699Z,39.97
2023-03-29T11:40:50.491Z,39.99
2023-03-29T11:41:51.032Z,39.93
2023-03-29T11:42:51.847Z,39.90
2023-03-29T11:45:50.134Z,39.87
2023-03-29T11:46:51.368Z,39.94
2023-03-29T11:47:51.008Z,39.91
2023-03-29T11:48:51.151Z,40.06
2023-03-29T11:49:51.616Z,39.92
2023-03-29T11:50:51.779Z,39.90
2023-03-29T11:51:51.788Z,39.90
2023-03-29T11:53:50.280Z,39.90
2023-03-29T11:54:51.951Z,39.92
2023-03-29T11:57:50.865Z,39.92
2023-03-29T11:58:52.073Z,39.89
2023-03-29T11:59:52.175Z,39.82
2023-03-29T12:01:50.607Z,39.77
2023-03-29T12:02:50.986Z,39.65
2023-03-29T12:03:51.153Z,39.80
2023-03-29T12:04:51.395Z,39.52
2023-03-29T12:05:50.582Z,39.44
2023-03-29T12:06:51.464Z,38.60
2023-03-29T12:07:51.876Z,39.86
2023-03-29T12:11:50.539Z,40.03
2023-03-29T12:12:50.736Z,40.41
2023-03-29T12:13:51.668Z,40.55
2023-03-29T12:14:51.719Z,40.40
2023-03-29T12:17:50.710Z,40.82
2023-03-29T12:18:51.644Z,41.60
2023-03-29T12:23:51.162Z,41.04
2023-03-29T12:24:52.529Z,41.15
2023-03-29T12:25:52.290Z,41.38
2023-03-29T12:26:52.872Z,41.37
2023-03-29T12:36:51.942Z,41.60
2023-03-29T12:42:52.185Z,41.81
2023-03-29T12:43:52.943Z,41.83
2023-03-29T12:44:52.867Z,41.96
2023-03-29T12:46:52.414Z,42.30
2023-03-29T12:47:53.374Z,42.08
2023-03-29T12:48:53.553Z,42.15
2023-03-29T12:49:53.967Z,42.25
2023-03-29T12:52:52.963Z,41.79
2023-03-29T12:57:52.573Z,42.03
2023-03-29T12:58:53.380Z,41.98
2023-03-29T12:59:53.915Z,41.71
2023-03-29T13:00:54.146Z,42.11
2023-03-29T13:05:52.402Z,41.24
2023-03-29T13:06:54.154Z,41.58
2023-03-29T13:07:53.379Z,41.49
2023-03-29T13:08:54.064Z,41.35
2023-03-29T13:11:52.520Z,41.46
2023-03-29T13:12:53.519Z,41.37
2023-03-29T13:13:53.508Z,41.04
2023-03-29T13:17:52.590Z,41.55
2023-03-29T13:18:53.570Z,41.71
2023-03-29T13:19:53.569Z,41.55
2023-03-29T13:20:53.581Z,41.08
2023-03-29T13:24:52.825Z,41.07
2023-03-29T13:25:53.765Z,41.02
2023-03-29T13:27:52.757Z,40.95
2023-03-29T13:28:54.620Z,40.77
2023-03-29T13:29:53.669Z,41.26
2023-03-29T13:30:53.720Z,41.27
2023-03-29T13:36:52.722Z,41.49
2023-03-29T13:37:53.668Z,42.41
2023-03-29T13:38:53.645Z,42.11
2023-03-29T13:41:52.599Z,42.03
2023-03-29T13:42:53.688Z,41.73
2023-03-29T13:43:53.698Z,41.69
2023-03-29T13:48:52.710Z,41.52
2023-03-29T13:49:53.554Z,41.66
2023-03-29T13:50:53.517Z,41.59
2023-03-29T13:51:53.609Z,41.56
2023-03-29T13:54:52.589Z,41.77
2023-03-29T13:56:52.541Z,41.86
2023-03-29T13:57:53.529Z,41.94
2023-03-29T13:58:53.509Z,41.87
2023-03-29T14:03:52.446Z,42.19
2023-03-29T14:04:53.470Z,42.08
2023-03-29T14:06:52.404Z,41.81
2023-03-29T14:07:53.434Z,41.83
2023-03-29T14:08:53.424Z,41.80
2023-03-29T14:09:53.438Z,41.85
2023-03-29T14:13:52.601Z,41.69
2023-03-29T14:14:59.304Z,41.73
2023-03-29T14:15:53.627Z,41.52
2023-03-29T14:18:52.601Z,41.65
2023-03-29T14:23:52.556Z,41.89
2023-03-29T14:24:53.571Z,41.83
2023-03-29T14:25:53.569Z,41.91
2023-03-29T14:30:52.609Z,41.88
2023-03-29T14:31:53.595Z,42.09
2023-03-29T14:32:52.600Z,41.98
2023-03-29T14:33:53.571Z,42.20
2023-03-29T14:38:52.473Z,42.27
2023-03-29T14:39:53.478Z,42.47
2023-03-29T14:40:53.485Z,42.31
2023-03-29T14:43:52.672Z,42.37
2023-03-29T14:44:53.717Z,42.34
2023-03-29T14:45:53.799Z,42.40
2023-03-29T14:46:53.861Z,42.37
2023-03-29T14:47:53.948Z,42.35
2023-03-29T14:48:53.972Z,42.48
2023-03-29T14:49:54.039Z,42.37
2023-03-29T14:53:53.264Z,42.45
2023-03-29T14:56:53.459Z,42.39
2023-03-29T14:57:54.504Z,42.39
2023-03-29T14:58:54.576Z,42.36
2023-03-29T14:59:54.609Z,42.39
2023-03-29T15:00:54.705Z,42.45
2023-03-29T15:04:53.928Z,42.32
2023-03-29T15:05:53.970Z,42.31
2023-03-29T15:06:55.094Z,42.30
2023-03-29T15:07:55.086Z,42.41
2023-03-29T15:09:05.294Z,42.35
2023-03-29T15:09:55.146Z,42.34
2023-03-29T15:16:54.098Z,42.39
2023-03-29T15:17:55.100Z,42.39
2023-03-29T15:18:54.114Z,42.45
2023-03-29T15:19:54.064Z,42.40
2023-03-29T15:21:54.075Z,42.50
2023-03-29T15:22:55.071Z,42.45
2023-03-29T15:23:55.079Z,42.42
2023-03-29T15:25:54.062Z,42.41
2023-03-29T15:27:54.020Z,42.45
2023-03-29T15:28:55.029Z,42.53
2023-03-29T15:29:55.013Z,42.55
2023-03-29T15:32:13.381Z,42.68
2023-03-29T15:33:14.258Z,42.56
2023-03-29T15:34:14.225Z,42.60
2023-03-29T15:35:14.193Z,42.62
2023-03-29T15:36:14.185Z,42.53
2023-03-29T15:37:14.106Z,42.61
2023-03-29T15:38:13.075Z,42.75
2023-03-29T15:39:14.044Z,42.62
2023-03-29T15:40:16.183Z,42.61
2023-03-29T15:41:14.679Z,42.68
2023-03-29T15:42:13.999Z,42.64
2023-03-29T15:43:14.153Z,42.56
2023-03-29T15:44:13.978Z,42.66
2023-03-29T15:45:13.004Z,42.70
2023-03-29T15:46:14.270Z,42.69
2023-03-29T15:47:12.975Z,42.75
2023-03-29T15:48:13.972Z,42.68
2023-03-29T15:49:13.979Z,42.68
2023-03-29T15:50:13.977Z,42.79
2023-03-29T15:51:13.969Z,42.79
2023-03-29T15:52:13.917Z,42.73
2023-03-29T15:53:15.735Z,42.77
2023-03-29T15:54:14.182Z,42.73
2023-03-29T15:55:13.993Z,42.78
2023-03-29T15:56:14.042Z,42.67
2023-03-29T15:57:14.067Z,42.77
2023-03-29T15:58:13.152Z,42.76
2023-03-29T15:59:13.977Z,42.75
2023-03-29T16:00:13.976Z,42.72
2023-03-29T16:01:13.934Z,42.80
2023-03-29T16:02:12.933Z,42.74
2023-03-29T16:03:13.978Z,42.72
2023-03-29T16:04:14.049Z,42.77
2023-03-29T16:05:13.863Z,42.75
2023-03-29T16:06:13.902Z,42.78
2023-03-29T16:07:13.919Z,42.79
2023-03-29T16:08:13.888Z,42.74
2023-03-29T16:09:12.802Z,42.80
2023-03-29T16:10:13.937Z,42.75
2023-03-29T16:11:13.952Z,42.89
2023-03-29T16:12:13.952Z,42.80
2023-03-29T16:13:13.825Z,42.82
2023-03-29T16:14:13.812Z,42.77
2023-03-29T16:15:13.821Z,42.89
2023-03-29T16:16:13.814Z,42.90
2023-03-29T16:17:13.755Z,42.74
2023-03-29T16:18:17.364Z,42.79
2023-03-29T16:19:13.945Z,42.85
2023-03-29T16:20:14.320Z,42.72
2023-03-29T16:21:13.750Z,42.75
2023-03-29T16:22:12.763Z,42.91
2023-03-29T16:23:12.793Z,42.91
2023-03-29T16:24:15.525Z,42.87
2023-03-29T16:25:13.971Z,42.88
2023-03-29T16:26:13.952Z,42.79
2023-03-29T16:27:14.958Z,42.88
2023-03-29T16:28:13.130Z,42.83
2023-03-29T16:29:12.791Z,42.79
2023-03-29T16:30:14.277Z,42.80
2023-03-29T16:31:13.825Z,42.84
2023-03-29T16:32:12.845Z,42.94
2023-03-29T16:33:13.901Z,42.80
2023-03-29T16:34:13.872Z,42.76
2023-03-29T16:35:13.804Z,42.87
2023-03-29T16:36:13.938Z,42.81
2023-03-29T16:37:13.110Z,42.81
2023-03-29T16:38:12.917Z,42.78
2023-03-29T16:39:13.834Z,42.85
2023-03-29T16:40:13.930Z,42.83
2023-03-29T16:41:13.922Z,42.78
2023-03-29T16:42:13.845Z,42.79
2023-03-29T16:43:13.924Z,42.83
2023-03-29T16:44:13.939Z,42.84
2023-03-29T16:45:13.935Z,42.81
2023-03-29T16:46:13.995Z,42.78
2023-03-29T16:47:12.949Z,42.78
2023-03-29T16:48:13.995Z,42.77
2023-03-29T16:49:12.957Z,42.83
2023-03-29T16:50:14.075Z,42.81
2023-03-29T16:51:14.056Z,42.72
2023-03-29T16:52:13.045Z,42.67
2023-03-29T16:53:14.097Z,42.68
2023-03-29T16:54:14.093Z,42.72
2023-03-29T16:55:14.072Z,42.75
2023-03-29T16:56:14.106Z,42.77
2023-03-29T16:57:13.206Z,42.82
2023-03-29T16:58:14.163Z,42.71
2023-03-29T16:59:14.249Z,42.71
2023-03-29T17:00:14.200Z,42.79
2023-03-29T17:01:14.364Z,42.68
2023-03-29T17:02:14.255Z,42.77
2023-03-29T17:03:13.404Z,42.72